Home   Weather   Jersey   Saint Helier   Past weeks
Flag for Jersey

Past Weather in Saint Helier, Jersey, Jersey — Yesterday and Last 2 Weeks

Currently: 43 °F. Overcast. (Weather station: Jersey Airport, Jersey). See more current weather

Past Weather in Saint Helier — Graph

°F

Saint Helier Temperature Yesterday

Maximum temperature yesterday: 54 °F (at 4:20 pm)
Minimum temperature yesterday: 30 °F (at 7:50 am)
Average temperature yesterday: 39 °F

High & Low Weather Summary for the Past Weeks

 TemperatureHumidityPressure
High54 °F (Feb 8, 4:20 pm)100% (Jan 25, 8:20 pm)30.86 "Hg (Jan 25, 8:20 pm)
Low30 °F (Feb 8, 7:50 am)54% (Feb 8, 4:20 pm)30.30 "Hg (Jan 25, 10:50 pm)
Average45 °F83%30.52 "Hg
* Reported Jan 25 4:20 am — Feb 9 4:20 am, Saint Helier. Weather by CustomWeather, © 2023

Note: Actual official high and low records may vary slightly from our data, if they occured in-between our weather recording intervals... More about our weather records

Saint Helier Weather History for the Previous 24 Hours

Scroll right to see more
 ConditionsComfort  
Time TempWeatherWind HumidityBarometerVisibility
4:20 am
Thu, Feb 9
43 °FOvercast.3 mph93%30.45 "HgN/A
3:50 am43 °FOvercast.2 mph87%30.45 "HgN/A
3:20 am43 °FOvercast.5 mph87%30.45 "HgN/A
2:50 am43 °FOvercast.3 mph87%30.45 "HgN/A
2:20 am41 °FOvercast.3 mph93%30.45 "HgN/A
1:50 am41 °FMostly cloudy.3 mph87%30.45 "HgN/A
1:20 am41 °FMostly cloudy.3 mph87%30.45 "HgN/A
12:50 am41 °FOvercast.1 mph93%30.48 "HgN/A
11:20 pm
Wed, Feb 8
39 °FPassing clouds.2 mph87%30.48 "HgN/A
10:50 pm37 °FOvercast.3 mph93%30.48 "HgN/A
10:20 pm39 °FChilly.2 mph87%30.48 "HgN/A
9:50 pm39 °FPassing clouds.5 mph81%30.48 "Hg5 mi
9:20 pm37 °FPassing clouds.3 mph81%30.48 "HgN/A
8:50 pm37 °FPassing clouds.5 mph81%30.48 "HgN/A
8:20 pm37 °FPassing clouds.5 mph81%30.48 "HgN/A
7:50 pm37 °FClear.2 mph81%30.48 "Hg10 mi
7:20 pm39 °FClear.2 mph75%30.48 "Hg10 mi
6:50 pm39 °FClear.2 mph81%30.48 "Hg10 mi
6:20 pm39 °FClear.5 mph75%30.48 "Hg10 mi
5:50 pm41 °FClear.1 mph70%30.48 "Hg10 mi
5:20 pm41 °FPassing clouds.3 mph70%30.48 "HgN/A
4:20 pm54 °FSunny.1 mph54%30.48 "Hg10 mi
3:50 pm50 °FSunny.3 mph62%30.48 "Hg10 mi
3:20 pm48 °FPassing clouds.5 mph62%30.48 "HgN/A
2:20 pm46 °FPassing clouds.6 mph62%30.51 "HgN/A
1:50 pm50 °FSunny.3 mph58%30.51 "Hg10 mi
1:20 pm50 °FSunny.2 mph62%30.51 "Hg10 mi
12:50 pm48 °FPassing clouds.5 mph62%30.54 "HgN/A
12:20 pm46 °FPassing clouds.5 mph66%30.54 "HgN/A
11:50 am46 °FPassing clouds.5 mph66%30.54 "HgN/A
11:20 am46 °FPassing clouds.3 mph71%30.54 "HgN/A
10:50 am46 °FPassing clouds.5 mph76%30.57 "HgN/A
10:20 am45 °FSunny.6 mph81%30.57 "Hg10 mi
9:50 am43 °FSunny.5 mph87%30.54 "Hg10 mi
9:20 am41 °FSunny.5 mph93%30.54 "Hg10 mi
8:50 am37 °FSunny.7 mph87%30.54 "Hg10 mi
8:20 am34 °FSunny.8 mph93%30.54 "Hg10 mi
7:50 am30 °FSunny.8 mph93%30.54 "Hg10 mi
7:20 am32 °FClear.7 mph93%30.54 "Hg10 mi
6:50 am34 °FClear.6 mph93%30.57 "Hg10 mi
6:20 am36 °FClear.6 mph87%30.57 "Hg10 mi
5:50 am34 °FClear.6 mph87%30.57 "Hg10 mi
5:20 am34 °FChilly.7 mph87%30.57 "HgN/A
Weather by CustomWeather, © 2023

See weather overview